createdAt,value
2019-06-07T00:01:50.639Z,101108.77
2019-06-07T00:04:21.513Z,101099.60
2019-06-07T00:06:51.623Z,101106.98
2019-06-07T00:09:22.472Z,101095.20
2019-06-07T00:11:52.734Z,101099.97
2019-06-07T00:14:22.763Z,101099.97
2019-06-07T00:16:52.665Z,101098.34
2019-06-07T00:19:24.326Z,101098.34
2019-06-07T00:22:15.743Z,101097.88
2019-06-07T00:24:25.861Z,101088.03
2019-06-07T00:26:58.919Z,101101.83
2019-06-07T00:29:27.369Z,101095.26
2019-06-07T00:31:57.176Z,101094.02
2019-06-07T00:34:26.917Z,101087.22
2019-06-07T00:36:56.836Z,101095.65
2019-06-07T00:39:29.073Z,101098.42
2019-06-07T00:41:58.799Z,101089.03
2019-06-07T00:44:28.806Z,101089.03
2019-06-07T00:46:58.474Z,101099.48
2019-06-07T00:49:40.700Z,101100.66
2019-06-07T00:51:59.927Z,101100.08
2019-06-07T00:54:29.883Z,101103.22
2019-06-07T00:56:59.741Z,101102.71
2019-06-07T00:59:29.912Z,101098.10
2019-06-07T01:01:59.937Z,101094.72
2019-06-07T01:04:29.719Z,101093.65
2019-06-07T01:06:59.634Z,101092.97
2019-06-07T01:09:29.563Z,101089.94
2019-06-07T01:11:59.709Z,101086.59
2019-06-07T01:14:29.473Z,101087.47
2019-06-07T01:17:22.239Z,101092.29
2019-06-07T01:19:30.992Z,101088.03
2019-06-07T01:22:00.653Z,101088.83
2019-06-07T01:24:30.556Z,101083.13
2019-06-07T01:27:00.534Z,101072.42
2019-06-07T01:29:31.204Z,101072.42
2019-06-07T01:32:01.086Z,101074.92
2019-06-07T01:34:30.900Z,101072.81
2019-06-07T01:37:00.578Z,101064.97
2019-06-07T01:39:31.878Z,101062.83
2019-06-07T01:42:02.004Z,101068.45
2019-06-07T01:44:31.977Z,101068.72
2019-06-07T01:47:01.891Z,101071.78
2019-06-07T01:49:31.735Z,101072.78
2019-06-07T01:52:01.508Z,101073.45
2019-06-07T01:57:02.864Z,101066.12
2019-06-07T01:59:32.910Z,101071.28
2019-06-07T02:02:02.847Z,101070.58
2019-06-07T02:04:33.496Z,101070.58
2019-06-07T02:07:03.671Z,101073.20
2019-06-07T02:09:33.668Z,101074.37
2019-06-07T02:12:24.636Z,101071.23
2019-06-07T02:14:36.097Z,101076.12
2019-06-07T02:17:05.967Z,101073.20
2019-06-07T02:19:35.953Z,101078.21
2019-06-07T02:22:05.908Z,101078.30
2019-06-07T02:24:36.618Z,101085.48
2019-06-07T02:27:06.710Z,101080.87
2019-06-07T02:29:36.667Z,101084.55
2019-06-07T02:32:06.448Z,101078.64
2019-06-07T02:34:39.556Z,101077.44
2019-06-07T02:37:08.037Z,101084.85
2019-06-07T02:39:40.811Z,101081.50
2019-06-07T02:42:09.264Z,101089.15
2019-06-07T02:44:40.321Z,101094.28
2019-06-07T02:47:10.323Z,101094.40
2019-06-07T02:49:42.034Z,101094.59
2019-06-07T02:52:13.253Z,101098.09
2019-06-07T02:54:43.178Z,101106.03
2019-06-07T02:57:12.960Z,101104.05
2019-06-07T03:00:05.745Z,101107.98
2019-06-07T03:02:14.845Z,101109.03
2019-06-07T03:04:45.102Z,101111.06
2019-06-07T03:07:16.228Z,101113.83
2019-06-07T03:09:47.033Z,101110.45
2019-06-07T03:12:19.205Z,101113.91
2019-06-07T03:14:49.405Z,101121.59
2019-06-07T03:17:40.844Z,101126.66
2019-06-07T03:20:12.893Z,101123.73
2019-06-07T03:22:43.893Z,101129.13
2019-06-07T03:25:13.794Z,101125.64
2019-06-07T03:27:49.949Z,101128.23
2019-06-07T03:32:49.536Z,101140.08
2019-06-07T03:35:19.579Z,101141.19
2019-06-07T03:37:49.436Z,101141.19
2019-06-07T03:40:19.358Z,101144.37
2019-06-07T03:42:49.319Z,101142.39
2019-06-07T03:45:19.207Z,101141.84
2019-06-07T03:47:49.156Z,101145.16
2019-06-07T03:50:18.962Z,101153.69
2019-06-07T03:52:48.722Z,101157.98
2019-06-07T03:55:18.590Z,101158.35
2019-06-07T03:58:30.137Z,101154.86
2019-06-07T04:00:20.008Z,101154.56
2019-06-07T04:02:49.861Z,101154.56
2019-06-07T04:05:19.541Z,101159.84
2019-06-07T04:07:49.382Z,101157.70
2019-06-07T04:10:19.018Z,101154.92
2019-06-07T04:12:48.773Z,101162.48
2019-06-07T04:15:18.795Z,101161.41
2019-06-07T04:18:01.346Z,101162.19
2019-06-07T04:20:20.259Z,101170.37
2019-06-07T04:22:50.128Z,101165.25
2019-06-07T04:25:20.018Z,101166.13
2019-06-07T04:27:49.828Z,101166.13
2019-06-07T04:30:39.561Z,101157.12
2019-06-07T04:33:10.039Z,101163.23
2019-06-07T04:35:43.121Z,101163.23
2019-06-07T04:38:14.512Z,101166.14
2019-06-07T04:40:44.828Z,101179.22
2019-06-07T04:43:14.603Z,101179.22
2019-06-07T04:45:50.876Z,101195.78
2019-06-07T04:48:16.071Z,101192.00
2019-06-07T04:50:47.655Z,101195.47
2019-06-07T04:53:17.553Z,101201.88
2019-06-07T04:55:47.481Z,101205.21
2019-06-07T04:58:17.384Z,101205.21
2019-06-07T05:00:54.124Z,101199.31
2019-06-07T05:03:18.912Z,101201.23
2019-06-07T05:05:48.902Z,101204.27
2019-06-07T05:08:28.001Z,101202.52
2019-06-07T05:10:50.284Z,101207.48
2019-06-07T05:13:20.204Z,101207.80
2019-06-07T05:15:49.975Z,101207.37
2019-06-07T05:18:19.821Z,101205.77
2019-06-07T05:20:49.555Z,101213.20
2019-06-07T05:24:00.122Z,101221.39
2019-06-07T05:25:51.093Z,101220.19
2019-06-07T05:28:21.024Z,101216.71
2019-06-07T05:31:03.790Z,101219.02
2019-06-07T05:33:22.746Z,101217.61
2019-06-07T05:35:52.706Z,101218.38
2019-06-07T05:38:22.507Z,101230.95
2019-06-07T05:40:52.372Z,101230.83
2019-06-07T05:43:29.203Z,101236.34
2019-06-07T05:45:59.200Z,101233.84
2019-06-07T05:48:28.936Z,101238.55
2019-06-07T05:50:58.664Z,101242.59
2019-06-07T05:53:28.748Z,101240.36
2019-06-07T05:55:58.480Z,101245.80
2019-06-07T05:58:28.207Z,101237.95
2019-06-07T06:01:41.035Z,101231.72
2019-06-07T06:03:29.714Z,101233.95
2019-06-07T06:05:59.482Z,101231.55
2019-06-07T06:08:29.307Z,101231.00
2019-06-07T06:10:59.189Z,101225.79
2019-06-07T06:13:29.122Z,101219.48
2019-06-07T06:16:01.981Z,101216.67
2019-06-07T06:18:31.729Z,101209.39
2019-06-07T06:21:16.048Z,101210.53
2019-06-07T06:23:33.096Z,101211.88
2019-06-07T06:26:02.957Z,101218.50
2019-06-07T06:28:32.823Z,101211.02
2019-06-07T06:31:02.580Z,101219.66
2019-06-07T06:33:34.751Z,101221.61
2019-06-07T06:36:04.213Z,101229.76
2019-06-07T06:38:34.042Z,101230.70
2019-06-07T06:41:15.076Z,101231.59
2019-06-07T06:43:35.514Z,101234.73
2019-06-07T06:46:05.512Z,101232.58
2019-06-07T06:48:35.464Z,101241.38
2019-06-07T06:51:05.404Z,101237.03
2019-06-07T06:53:35.175Z,101236.89
2019-06-07T06:56:05.023Z,101234.39
2019-06-07T06:59:18.675Z,101245.10
2019-06-07T07:01:07.276Z,101246.23
2019-06-07T07:03:57.430Z,101243.77
2019-06-07T07:06:25.332Z,101249.52
2019-06-07T07:08:44.266Z,101245.03
2019-06-07T07:11:14.858Z,101243.92
2019-06-07T07:13:49.201Z,101250.81
2019-06-07T07:16:16.649Z,101248.41
2019-06-07T07:18:47.600Z,101251.59
2019-06-07T07:21:18.873Z,101263.90
2019-06-07T07:24:15.173Z,101260.73
2019-06-07T07:26:20.399Z,101261.14
2019-06-07T07:28:54.014Z,101266.34
2019-06-07T07:31:21.969Z,101263.94
2019-06-07T07:34:30.893Z,101270.71
2019-06-07T07:36:38.926Z,101267.17
2019-06-07T07:39:04.495Z,101264.23
2019-06-07T07:41:28.431Z,101266.11
2019-06-07T07:44:05.819Z,101267.28
2019-06-07T07:46:30.634Z,101264.21
2019-06-07T07:49:00.727Z,101262.30
2019-06-07T07:51:30.505Z,101261.81
2019-06-07T07:54:10.234Z,101257.45
2019-06-07T07:56:32.219Z,101260.49
2019-06-07T07:59:02.832Z,101259.59
2019-06-07T08:01:32.823Z,101261.80
2019-06-07T08:04:02.583Z,101269.62
2019-06-07T08:06:32.471Z,101268.30
2019-06-07T08:09:02.300Z,101274.43
2019-06-07T08:11:32.525Z,101269.80
2019-06-07T08:14:02.427Z,101275.14
2019-06-07T08:16:32.601Z,101277.03
2019-06-07T08:19:04.295Z,101281.13
2019-06-07T08:21:34.031Z,101276.56
2019-06-07T08:24:05.340Z,101279.41
2019-06-07T08:26:35.400Z,101283.58
2019-06-07T08:29:05.415Z,101292.30
2019-06-07T08:31:35.944Z,101296.77
2019-06-07T08:34:06.053Z,101299.95
2019-06-07T08:36:42.310Z,101304.48
2019-06-07T08:39:09.201Z,101300.27
2019-06-07T08:41:53.493Z,101298.14
2019-06-07T08:44:23.170Z,101294.06
2019-06-07T08:46:42.301Z,101295.08
2019-06-07T08:49:12.155Z,101297.02
2019-06-07T08:51:43.282Z,101301.41
2019-06-07T08:54:22.469Z,101292.94
2019-06-07T08:56:44.415Z,101288.66
2019-06-07T08:59:14.283Z,101290.67
2019-06-07T09:01:44.046Z,101299.48
2019-06-07T09:04:13.908Z,101297.63
2019-06-07T09:09:15.421Z,101288.72
2019-06-07T09:11:45.308Z,101283.91
2019-06-07T09:14:15.167Z,101291.84
2019-06-07T09:16:45.005Z,101290.59
2019-06-07T09:19:14.953Z,101301.60
2019-06-07T09:21:44.760Z,101301.95
2019-06-07T09:24:14.431Z,101296.50
2019-06-07T09:26:44.334Z,101289.08
2019-06-07T09:29:14.336Z,101296.77
2019-06-07T09:31:52.610Z,101299.20
2019-06-07T09:34:16.077Z,101295.27
2019-06-07T09:36:46.033Z,101301.47
2019-06-07T09:39:15.997Z,101296.45
2019-06-07T09:41:50.125Z,101293.69
2019-06-07T09:44:24.626Z,101296.80
2019-06-07T09:47:07.902Z,101295.69
2019-06-07T09:49:31.437Z,101295.80
2019-06-07T09:51:52.034Z,101295.47
2019-06-07T09:55:04.127Z,101287.93
2019-06-07T09:56:53.417Z,101286.25
2019-06-07T09:59:23.300Z,101293.73
2019-06-07T10:01:53.056Z,101285.74
2019-06-07T10:04:31.312Z,101286.56
2019-06-07T10:06:54.400Z,101282.23
2019-06-07T10:11:55.822Z,101280.67
2019-06-07T10:14:25.687Z,101280.17
2019-06-07T10:16:55.600Z,101271.73
2019-06-07T10:19:25.543Z,101260.72
2019-06-07T10:21:55.415Z,101268.04
2019-06-07T10:24:26.110Z,101266.20
2019-06-07T10:26:55.793Z,101265.19
2019-06-07T10:29:25.600Z,101263.34
2019-06-07T10:31:55.558Z,101263.16
2019-06-07T10:34:25.437Z,101245.67
2019-06-07T10:36:55.344Z,101255.36
2019-06-07T10:39:25.222Z,101257.23
2019-06-07T10:41:54.860Z,101261.34
2019-06-07T10:44:24.561Z,101256.41
2019-06-07T10:46:54.431Z,101248.89
2019-06-07T10:49:24.325Z,101248.26
2019-06-07T10:51:54.235Z,101244.58
2019-06-07T10:54:29.785Z,101241.68
2019-06-07T10:56:55.787Z,101232.76
2019-06-07T10:59:25.732Z,101231.53
2019-06-07T11:01:55.458Z,101229.16
2019-06-07T11:04:25.370Z,101233.66
2019-06-07T11:06:55.243Z,101236.15
2019-06-07T11:09:25.020Z,101238.28
2019-06-07T11:11:54.897Z,101234.02
2019-06-07T11:14:24.597Z,101226.88
2019-06-07T11:16:54.579Z,101225.84
2019-06-07T11:19:24.346Z,101234.39
2019-06-07T11:21:54.234Z,101229.67
2019-06-07T11:24:24.838Z,101230.89
2019-06-07T11:26:55.164Z,101229.78
2019-06-07T11:29:24.822Z,101233.36
2019-06-07T11:31:54.765Z,101238.11
2019-06-07T11:34:24.707Z,101227.56
2019-06-07T11:36:54.476Z,101235.70
2019-06-07T11:39:24.270Z,101225.51
2019-06-07T11:41:54.037Z,101218.21
2019-06-07T11:44:23.817Z,101213.61
2019-06-07T11:46:53.770Z,101214.71
2019-06-07T11:49:24.910Z,101214.72
2019-06-07T11:51:54.682Z,101209.17
2019-06-07T11:54:24.615Z,101213.39
2019-06-07T11:56:55.646Z,101208.19
2019-06-07T11:59:25.502Z,101205.26
2019-06-07T12:01:55.158Z,101204.00
2019-06-07T12:04:34.430Z,101210.44
2019-06-07T12:06:57.791Z,101204.40
2019-06-07T12:09:28.168Z,101195.91
2019-06-07T12:11:58.170Z,101194.00
2019-06-07T12:14:28.048Z,101190.30
2019-06-07T12:16:57.855Z,101188.95
2019-06-07T12:19:27.614Z,101178.58
2019-06-07T12:21:57.517Z,101183.34
2019-06-07T12:24:27.083Z,101183.16
2019-06-07T12:26:56.953Z,101185.39
2019-06-07T12:29:26.749Z,101187.34
2019-06-07T12:31:56.540Z,101188.84
2019-06-07T12:34:26.470Z,101189.04
2019-06-07T12:36:56.423Z,101184.53
2019-06-07T12:39:26.329Z,101190.36
2019-06-07T12:41:57.455Z,101191.67
2019-06-07T12:44:27.332Z,101186.14
2019-06-07T12:46:56.951Z,101184.03
2019-06-07T12:49:28.572Z,101182.34
2019-06-07T12:51:58.337Z,101181.32
2019-06-07T12:54:28.263Z,101179.26
2019-06-07T12:56:58.093Z,101184.72
2019-06-07T12:59:27.966Z,101173.01
2019-06-07T13:02:02.312Z,101168.41
2019-06-07T13:04:29.456Z,101164.87
2019-06-07T13:06:59.165Z,101168.41
2019-06-07T13:09:29.040Z,101165.91
2019-06-07T13:11:58.776Z,101172.95
2019-06-07T13:14:28.589Z,101166.77
2019-06-07T13:16:58.311Z,101173.83
2019-06-07T13:19:28.583Z,101168.89
2019-06-07T13:21:58.404Z,101158.38
2019-06-07T13:24:28.793Z,101151.60
2019-06-07T13:26:59.833Z,101157.55
2019-06-07T13:29:32.319Z,101142.20
2019-06-07T13:32:03.407Z,101143.49
2019-06-07T13:34:33.187Z,101128.77
2019-06-07T13:37:03.113Z,101133.62
2019-06-07T13:39:33.170Z,101135.28
2019-06-07T13:42:03.021Z,101126.48
2019-06-07T13:44:33.052Z,101116.31
2019-06-07T13:47:02.921Z,101113.06
2019-06-07T13:49:32.563Z,101114.63
2019-06-07T13:52:02.477Z,101115.20
2019-06-07T13:54:32.886Z,101118.39
2019-06-07T13:57:03.384Z,101116.64
2019-06-07T13:59:33.265Z,101117.63
2019-06-07T14:02:04.383Z,101118.01
2019-06-07T14:04:34.005Z,101112.61
2019-06-07T14:07:03.961Z,101101.97
2019-06-07T14:09:33.880Z,101106.98
2019-06-07T14:12:03.660Z,101109.25
2019-06-07T14:14:33.590Z,101110.41
2019-06-07T14:17:05.251Z,101116.03
2019-06-07T14:19:34.938Z,101109.78
2019-06-07T14:22:04.718Z,101107.12
2019-06-07T14:24:34.506Z,101115.75
2019-06-07T14:27:07.066Z,101112.53
2019-06-07T14:29:38.004Z,101107.08
2019-06-07T14:32:08.446Z,101107.00
2019-06-07T14:34:38.305Z,101113.20
2019-06-07T14:37:08.575Z,101108.37
2019-06-07T14:39:38.392Z,101103.77
2019-06-07T14:42:10.362Z,101111.43
2019-06-07T14:44:39.845Z,101113.48
2019-06-07T14:47:09.550Z,101116.30
2019-06-07T14:49:39.333Z,101123.38
2019-06-07T14:52:08.990Z,101129.99
2019-06-07T14:54:39.485Z,101125.11
2019-06-07T14:57:09.379Z,101117.92
2019-06-07T14:59:39.246Z,101127.05
2019-06-07T15:02:09.161Z,101121.13
2019-06-07T15:04:42.159Z,101125.63
2019-06-07T15:07:15.769Z,101126.00
2019-06-07T15:09:45.679Z,101132.78
2019-06-07T15:12:25.044Z,101130.93
2019-06-07T15:14:48.261Z,101135.00
2019-06-07T15:17:18.075Z,101134.12
2019-06-07T15:19:49.280Z,101139.53
2019-06-07T15:22:19.050Z,101135.22
2019-06-07T15:24:48.874Z,101130.11
2019-06-07T15:27:18.982Z,101136.58
2019-06-07T15:29:48.890Z,101137.29
2019-06-07T15:32:18.801Z,101140.48
2019-06-07T15:34:48.471Z,101145.47
2019-06-07T15:37:18.356Z,101150.53
2019-06-07T15:39:48.090Z,101136.97
2019-06-07T15:42:17.867Z,101147.47
2019-06-07T15:44:47.674Z,101145.37
2019-06-07T15:47:18.758Z,101150.23
2019-06-07T15:49:48.639Z,101148.90
2019-06-07T15:52:19.737Z,101151.30
2019-06-07T15:54:49.585Z,101149.55
2019-06-07T15:57:19.386Z,101146.06
2019-06-07T15:59:49.121Z,101152.57
2019-06-07T16:02:20.085Z,101148.72
2019-06-07T16:04:49.886Z,101152.19
2019-06-07T16:07:19.739Z,101140.27
2019-06-07T16:09:49.521Z,101142.51
2019-06-07T16:12:19.339Z,101151.33
2019-06-07T16:14:49.404Z,101152.53
2019-06-07T16:17:19.183Z,101158.92
2019-06-07T16:19:48.895Z,101158.66
2019-06-07T16:22:18.621Z,101146.36
2019-06-07T16:24:48.519Z,101141.52
2019-06-07T16:27:18.432Z,101137.15
2019-06-07T16:29:48.487Z,101139.72
2019-06-07T16:32:19.473Z,101135.80
2019-06-07T16:34:49.092Z,101140.11
2019-06-07T16:37:19.069Z,101141.41
2019-06-07T16:39:48.823Z,101139.23
2019-06-07T16:42:18.736Z,101141.82
2019-06-07T16:44:48.966Z,101139.99
2019-06-07T16:47:18.997Z,101139.38
2019-06-07T16:49:49.190Z,101136.51
2019-06-07T16:52:19.077Z,101147.91
2019-06-07T16:54:48.839Z,101144.31
2019-06-07T16:57:18.634Z,101149.71
2019-06-07T16:59:50.496Z,101153.88
2019-06-07T17:02:20.113Z,101159.09
2019-06-07T17:04:51.186Z,101166.46
2019-06-07T17:07:20.288Z,101163.73
2019-06-07T17:09:50.142Z,101165.81
2019-06-07T17:12:20.105Z,101167.69
2019-06-07T17:14:49.907Z,101170.51
2019-06-07T17:17:19.706Z,101178.70
2019-06-07T17:19:49.435Z,101183.75
2019-06-07T17:22:19.287Z,101183.04
2019-06-07T17:24:49.887Z,101180.03
2019-06-07T17:27:19.981Z,101174.20
2019-06-07T17:29:50.104Z,101168.86
2019-06-07T17:32:20.123Z,101175.53
2019-06-07T17:34:50.425Z,101179.84
2019-06-07T17:37:20.505Z,101196.00
2019-06-07T17:39:50.950Z,101193.34
2019-06-07T17:42:20.639Z,101209.11
2019-06-07T17:44:51.465Z,101207.77
2019-06-07T17:47:21.511Z,101212.64
2019-06-07T17:49:52.242Z,101206.42
2019-06-07T17:52:22.102Z,101209.63
2019-06-07T17:54:52.441Z,101203.55
2019-06-07T17:57:22.314Z,101209.73
2019-06-07T17:59:52.696Z,101215.22
2019-06-07T18:02:22.547Z,101214.69
2019-06-07T18:04:53.621Z,101210.49
2019-06-07T18:07:24.767Z,101220.70
2019-06-07T18:09:55.888Z,101217.44
2019-06-07T18:12:25.582Z,101214.49
2019-06-07T18:14:55.782Z,101220.55
2019-06-07T18:17:34.701Z,101220.75
2019-06-07T18:19:57.423Z,101218.66
2019-06-07T18:22:27.318Z,101216.50
2019-06-07T18:24:57.370Z,101213.65
2019-06-07T18:27:27.354Z,101216.45
2019-06-07T18:29:57.358Z,101222.26
2019-06-07T18:32:28.651Z,101232.44
2019-06-07T18:35:00.257Z,101237.53
2019-06-07T18:37:30.049Z,101244.84
2019-06-07T18:40:00.361Z,101253.96
2019-06-07T18:42:30.212Z,101253.75
2019-06-07T18:45:00.155Z,101248.80
2019-06-07T18:47:30.239Z,101244.14
2019-06-07T18:50:00.190Z,101246.48
2019-06-07T18:52:33.488Z,101241.82
2019-06-07T18:55:03.225Z,101246.98
2019-06-07T18:57:33.007Z,101249.30
2019-06-07T19:00:03.081Z,101247.09
2019-06-07T19:02:32.923Z,101253.92
2019-06-07T19:05:02.970Z,101259.72
2019-06-07T19:07:32.823Z,101258.38
2019-06-07T19:10:02.797Z,101261.33
2019-06-07T19:12:32.617Z,101264.61
2019-06-07T19:15:02.543Z,101259.52
2019-06-07T19:17:32.440Z,101258.70
2019-06-07T19:20:03.489Z,101250.44
2019-06-07T19:22:33.224Z,101253.73
2019-06-07T19:25:02.897Z,101249.75
2019-06-07T19:27:33.163Z,101260.00
2019-06-07T19:30:03.300Z,101255.73
2019-06-07T19:32:33.395Z,101256.31
2019-06-07T19:35:03.291Z,101253.39
2019-06-07T19:37:34.584Z,101256.37
2019-06-07T19:40:04.837Z,101254.23
2019-06-07T19:42:34.495Z,101256.08
2019-06-07T19:45:27.059Z,101251.30
2019-06-07T19:47:36.996Z,101254.89
2019-06-07T19:50:07.290Z,101257.21
2019-06-07T19:52:38.573Z,101260.28
2019-06-07T19:55:09.943Z,101260.47
2019-06-07T19:57:41.040Z,101259.37
2019-06-07T20:00:14.953Z,101255.90
2019-06-07T20:02:43.323Z,101251.12
2019-06-07T20:05:14.585Z,101253.95
2019-06-07T20:07:45.771Z,101260.87
2019-06-07T20:10:16.135Z,101255.55
2019-06-07T20:12:46.012Z,101258.89
2019-06-07T20:15:28.523Z,101259.38
2019-06-07T20:17:48.534Z,101256.38
2019-06-07T20:20:19.077Z,101253.39
2019-06-07T20:22:48.814Z,101260.54
2019-06-07T20:25:19.496Z,101268.81
2019-06-07T20:27:49.367Z,101279.59
2019-06-07T20:30:20.466Z,101281.88
2019-06-07T20:32:50.156Z,101276.03
2019-06-07T20:35:20.251Z,101271.53
2019-06-07T20:37:49.930Z,101270.53
2019-06-07T20:40:24.532Z,101268.88
2019-06-07T20:42:52.659Z,101276.12
2019-06-07T20:45:32.969Z,101284.10
2019-06-07T20:47:53.928Z,101275.20
2019-06-07T20:50:23.630Z,101277.90
2019-06-07T20:52:53.476Z,101277.20
2019-06-07T20:55:23.247Z,101277.75
2019-06-07T20:57:52.953Z,101284.28
2019-06-07T21:00:23.352Z,101282.45
2019-06-07T21:02:53.208Z,101286.12
2019-06-07T21:05:23.020Z,101280.71
2019-06-07T21:07:52.893Z,101275.61
2019-06-07T21:10:23.069Z,101275.78
2019-06-07T21:12:52.895Z,101283.90
2019-06-07T21:15:22.865Z,101276.28
2019-06-07T21:17:52.855Z,101280.42
2019-06-07T21:20:22.638Z,101278.75
2019-06-07T21:22:52.715Z,101278.53
2019-06-07T21:25:22.479Z,101276.51
2019-06-07T21:27:52.392Z,101280.30
2019-06-07T21:30:22.656Z,101279.45
2019-06-07T21:32:52.411Z,101290.66
2019-06-07T21:35:22.120Z,101291.00
2019-06-07T21:37:52.002Z,101277.71
2019-06-07T21:40:21.649Z,101280.90
2019-06-07T21:42:51.484Z,101288.33
2019-06-07T21:45:21.396Z,101282.23
2019-06-07T21:47:51.196Z,101283.97
2019-06-07T21:50:21.423Z,101280.00
2019-06-07T21:52:51.132Z,101285.89
2019-06-07T21:55:21.216Z,101282.71
2019-06-07T21:57:51.088Z,101286.46
2019-06-07T22:00:26.781Z,101286.98
2019-06-07T22:02:56.525Z,101288.52
2019-06-07T22:05:26.144Z,101287.74
2019-06-07T22:07:56.000Z,101285.20
2019-06-07T22:10:26.514Z,101289.83
2019-06-07T22:12:56.412Z,101293.00
2019-06-07T22:15:33.988Z,101291.85
2019-06-07T22:17:57.974Z,101290.36
2019-06-07T22:20:27.827Z,101289.70
2019-06-07T22:22:57.778Z,101290.61
2019-06-07T22:25:27.646Z,101287.55
2019-06-07T22:27:57.672Z,101288.91
2019-06-07T22:30:27.643Z,101293.48
2019-06-07T22:32:57.410Z,101294.67
2019-06-07T22:35:27.459Z,101293.75
2019-06-07T22:37:57.218Z,101290.46
2019-06-07T22:40:27.157Z,101287.73
2019-06-07T22:42:57.111Z,101284.80
2019-06-07T22:45:26.973Z,101278.82
2019-06-07T22:47:58.133Z,101275.99
2019-06-07T22:50:27.977Z,101277.97
2019-06-07T22:52:57.838Z,101282.55
2019-06-07T22:55:27.785Z,101280.50
2019-06-07T22:58:00.136Z,101282.44
2019-06-07T23:00:31.730Z,101279.80
2019-06-07T23:03:01.665Z,101276.30
2019-06-07T23:05:31.588Z,101278.75
2019-06-07T23:08:01.444Z,101280.66
2019-06-07T23:10:31.265Z,101271.36
2019-06-07T23:13:01.115Z,101273.22
2019-06-07T23:15:30.802Z,101273.65
2019-06-07T23:18:00.544Z,101282.59
2019-06-07T23:20:30.221Z,101271.19
2019-06-07T23:23:00.279Z,101278.26
2019-06-07T23:25:30.184Z,101276.17
2019-06-07T23:27:59.980Z,101271.55
2019-06-07T23:30:29.976Z,101271.55
2019-06-07T23:32:59.780Z,101275.50
2019-06-07T23:35:29.601Z,101273.16
2019-06-07T23:37:59.320Z,101276.52
2019-06-07T23:40:29.139Z,101271.66
2019-06-07T23:42:58.892Z,101276.60
2019-06-07T23:45:28.847Z,101255.80
2019-06-07T23:47:58.581Z,101250.48
2019-06-07T23:50:28.516Z,101250.48
2019-06-07T23:52:58.454Z,101264.52
2019-06-07T23:55:29.662Z,101257.31
2019-06-07T23:57:59.578Z,101263.39
